Alden, Iowa
Current Conditions -  °F | °C
As of 7:35 PM on Friday 21 Nov 2014 (Local Time) from KIFA Reporting Station
Haze Haze  
Wind Chill: 24°   Ceiling: 1600
Heat Index: 32°   Visibility: 5mi
Dew Point: 25°   Wind: 10mph
Humidity: 75%   Direction: 160°SSE
Pressure: 30.07"   Gusts: NA
Location:  42.52°N, 93.38°W
Report Text: KIFA 220135Z AUTO 16009KT 5SM HZ OVC016 00/M04 A3007 RMK AO2 T00001039
Loading
Personal Weather Stations






























Interactive Weather Map New forecast layout! Learn more

10-Day Weather Forecast

Advertisements
Track Severe Weather on mobile